Time;durP1;ratioP1;P1;durP2;ratioP2;P2;SDS_P1;SDS_P2;PMS_P1;PMS_P2;Temp;Humidity;BMP_temperature;BMP_pressure;BME280_temperature;BME280_humidity;BME280_pressure;Samples;Min_cycle;Max_cycle;Signal;HPM_P1;HPM_P2
2021/08/09 00:02:12;;;;;;;6.30;2.75;;;12.90;91.10;;;;;;5034409;28;20063;-69
2021/08/09 00:04:39;;;;;;;5.28;2.78;;;12.80;91.00;;;;;;5038438;28;20025;-69
2021/08/09 00:07:07;;;;;;;5.15;2.42;;;12.90;90.80;;;;;;5043452;28;20020;-69
2021/08/09 00:09:33;;;;;;;5.00;2.40;;;12.80;91.10;;;;;;5053273;28;20055;-70
2021/08/09 00:12:00;;;;;;;7.35;2.67;;;12.90;91.00;;;;;;5045569;28;20181;-70
2021/08/09 00:14:25;;;;;;;5.88;2.25;;;13.00;90.60;;;;;;5046159;28;20082;-69
2021/08/09 00:16:51;;;;;;;9.43;2.33;;;13.10;90.20;;;;;;5048394;28;20037;-70
2021/08/09 00:19:17;;;;;;;8.10;2.70;;;13.10;90.00;;;;;;5048230;28;20437;-70
2021/08/09 00:21:42;;;;;;;3.60;1.90;;;13.20;89.50;;;;;;5042561;28;20032;-70
2021/08/09 00:24:08;;;;;;;6.55;2.75;;;13.30;89.50;;;;;;5049946;28;20135;-68
2021/08/09 00:26:34;;;;;;;4.63;2.20;;;13.30;89.50;;;;;;5042423;28;20106;-69
2021/08/09 00:29:00;;;;;;;5.22;2.15;;;13.30;89.50;;;;;;5052587;28;20021;-69
2021/08/09 00:31:25;;;;;;;3.67;2.15;;;13.40;89.20;;;;;;5046527;28;20040;-69
2021/08/09 00:33:51;;;;;;;7.82;2.17;;;13.50;89.20;;;;;;5047684;28;20114;-68
2021/08/09 00:36:17;;;;;;;6.75;2.30;;;13.50;88.90;;;;;;5045616;28;20461;-68
2021/08/09 00:38:43;;;;;;;5.97;2.05;;;13.50;89.00;;;;;;5045701;28;20021;-69
2021/08/09 00:41:08;;;;;;;5.05;2.10;;;13.60;88.70;;;;;;5036544;28;20465;-69
2021/08/09 00:43:34;;;;;;;6.65;2.28;;;13.60;88.70;;;;;;5046823;28;20036;-68
2021/08/09 00:46:04;;;;;;;5.70;2.20;;;13.70;88.50;;;;;;5034387;28;20041;-69
2021/08/09 00:48:36;;;;;;;15.32;2.60;;;13.70;88.20;;;;;;5045580;28;20051;-69
2021/08/09 00:51:03;;;;;;;3.97;2.00;;;13.70;88.00;;;;;;5038517;28;20402;-69
2021/08/09 00:53:29;;;;;;;5.32;2.08;;;13.70;88.10;;;;;;5050487;28;20036;-70
2021/08/09 00:55:55;;;;;;;2.92;1.80;;;13.70;88.10;;;;;;5047511;28;20029;-70
2021/08/09 00:58:20;;;;;;;5.28;2.47;;;13.80;88.10;;;;;;5050842;28;20052;-67
2021/08/09 01:00:47;;;;;;;4.95;2.30;;;13.80;87.90;;;;;;5036021;28;20457;-70
2021/08/09 01:03:13;;;;;;;7.03;1.98;;;13.80;88.10;;;;;;5041793;28;20033;-69
2021/08/09 01:05:39;;;;;;;4.65;1.75;;;13.80;88.30;;;;;;5019060;28;20040;-69
2021/08/09 01:08:15;;;;;;;5.55;2.08;;;13.80;88.10;;;;;;5039976;28;20048;-70
2021/08/09 01:11:04;;;;;;;10.27;2.42;;;13.80;88.20;;;;;;5045955;28;20072;-70
2021/08/09 01:13:36;;;;;;;4.05;1.88;;;13.70;88.20;;;;;;5047752;28;20079;-70
2021/08/09 01:16:08;;;;;;;4.95;2.10;;;13.70;88.40;;;;;;5036414;28;20052;-69
2021/08/09 01:18:36;;;;;;;5.63;1.88;;;13.70;88.40;;;;;;5036069;28;20576;-70
2021/08/09 01:21:05;;;;;;;6.00;1.88;;;13.80;88.20;;;;;;5046437;28;20105;-69
2021/08/09 01:24:02;;;;;;;4.72;2.13;;;13.80;88.10;;;;;;5049150;28;20040;-70
2021/08/09 01:26:44;;;;;;;5.10;1.92;;;13.80;87.90;;;;;;5030994;28;20033;-70
2021/08/09 01:29:17;;;;;;;2.75;1.75;;;13.80;87.90;;;;;;5050406;28;20033;-70
2021/08/09 01:31:49;;;;;;;5.15;2.00;;;13.90;87.70;;;;;;5047164;28;20061;-69
2021/08/09 01:34:15;;;;;;;;;;;13.90;87.80;;;;;;5040266;28;20136;-68
2021/08/09 01:36:47;;;;;;;5.88;2.28;;;13.90;87.80;;;;;;5039119;28;20304;-69
2021/08/09 01:39:16;;;;;;;4.28;1.88;;;13.90;87.70;;;;;;5045633;28;20139;-69
2021/08/09 01:41:42;;;;;;;6.35;2.55;;;13.90;87.70;;;;;;5033615;28;20106;-68
2021/08/09 01:44:09;;;;;;;6.55;2.00;;;13.80;87.70;;;;;;5047692;28;20113;-68
2021/08/09 01:46:36;;;;;;;5.97;1.80;;;13.80;87.90;;;;;;5045434;28;20028;-68
2021/08/09 01:49:04;;;;;;;5.53;2.03;;;13.80;87.40;;;;;;5029616;28;20044;-68
2021/08/09 01:51:32;;;;;;;6.25;2.30;;;13.90;87.60;;;;;;5050157;28;20020;-69
2021/08/09 01:53:59;;;;;;;4.65;1.75;;;13.80;87.60;;;;;;5046655;28;20059;-68
2021/08/09 01:56:25;;;;;;;6.53;2.08;;;13.90;87.50;;;;;;5029039;28;20470;-69
2021/08/09 01:58:51;;;;;;;4.97;1.88;;;13.90;87.30;;;;;;5041932;28;20047;-66
2021/08/09 02:01:18;;;;;;;7.05;2.20;;;13.90;87.50;;;;;;5042079;28;20036;-69
2021/08/09 02:03:44;;;;;;;4.72;1.70;;;13.90;87.40;;;;;;5045770;28;20040;-69
2021/08/09 02:06:10;;;;;;;6.53;2.25;;;13.90;87.20;;;;;;5043180;28;20033;-69
2021/08/09 02:08:36;;;;;;;8.70;1.95;;;13.90;87.40;;;;;;5026003;28;20051;-68
2021/08/09 02:11:15;;;;;;;5.97;1.80;;;14.00;87.00;;;;;;5046326;28;20029;-68
2021/08/09 02:13:50;;;;;;;4.55;2.15;;;14.00;87.10;;;;;;5039528;28;20488;-68
2021/08/09 02:16:20;;;;;;;4.68;1.88;;;14.00;87.30;;;;;;5039779;28;20029;-68
2021/08/09 02:19:01;;;;;;;5.95;1.75;;;13.90;87.30;;;;;;5027548;28;20037;-69
2021/08/09 02:21:34;;;;;;;5.70;2.00;;;13.90;87.00;;;;;;5045435;28;20315;-68
2021/08/09 02:24:08;;;;;;;5.40;2.08;;;13.90;87.40;;;;;;5053958;28;20323;-68
2021/08/09 02:26:46;;;;;;;6.93;2.13;;;13.70;87.60;;;;;;5010106;28;20028;-68
2021/08/09 02:29:16;;;;;;;4.30;1.92;;;13.70;87.90;;;;;;5041724;28;20460;-68
2021/08/09 02:31:44;;;;;;;6.45;2.15;;;13.60;88.00;;;;;;5026170;28;20200;-68
2021/08/09 02:34:13;;;;;;;4.85;1.80;;;13.60;88.40;;;;;;5031265;28;20434;-68
2021/08/09 02:36:41;;;;;;;4.93;2.20;;;13.50;88.40;;;;;;5044854;28;20021;-68
2021/08/09 02:39:08;;;;;;;8.02;2.35;;;13.50;88.50;;;;;;5034859;28;20033;-68
2021/08/09 02:41:34;;;;;;;5.72;2.28;;;13.50;88.60;;;;;;5044771;28;20338;-68
2021/08/09 02:44:01;;;;;;;5.88;1.92;;;13.50;88.70;;;;;;5052801;28;20048;-69
2021/08/09 02:46:27;;;;;;;8.00;2.70;;;13.50;88.80;;;;;;5036438;28;20030;-68
2021/08/09 02:48:53;;;;;;;6.68;2.30;;;13.50;88.80;;;;;;5047261;28;20116;-67
2021/08/09 02:51:20;;;;;;;5.63;2.22;;;13.30;89.10;;;;;;5032068;28;20155;-69
2021/08/09 02:53:47;;;;;;;8.15;2.28;;;13.30;89.30;;;;;;5044617;28;20036;-69
2021/08/09 02:56:16;;;;;;;8.48;2.50;;;13.30;89.40;;;;;;5037122;28;20112;-69
2021/08/09 02:58:42;;;;;;;7.13;2.17;;;13.30;89.50;;;;;;5044148;28;20081;-70
2021/08/09 03:01:08;;;;;;;9.32;2.58;;;13.20;89.50;;;;;;5033550;28;20070;-70
2021/08/09 03:03:36;;;;;;;6.60;2.33;;;13.30;89.40;;;;;;5037211;28;20025;-69
2021/08/09 03:06:02;;;;;;;4.38;2.30;;;13.20;89.60;;;;;;5040583;28;20036;-69
2021/08/09 03:08:29;;;;;;;6.80;2.10;;;13.10;90.00;;;;;;5042734;28;20016;-70
2021/08/09 03:10:55;;;;;;;5.25;2.33;;;13.10;89.70;;;;;;5044206;28;20028;-69
2021/08/09 03:13:22;;;;;;;6.78;2.65;;;13.10;89.80;;;;;;5050609;28;20029;-69
2021/08/09 03:15:48;;;;;;;5.75;2.28;;;13.10;89.90;;;;;;5041190;28;20392;-69
2021/08/09 03:18:14;;;;;;;4.25;2.08;;;13.00;90.00;;;;;;5034088;28;20115;-69
2021/08/09 03:20:39;;;;;;;6.18;2.70;;;13.00;90.40;;;;;;5044485;28;20101;-69
2021/08/09 03:23:05;;;;;;;7.78;2.40;;;13.00;90.50;;;;;;5048991;28;20037;-69
2021/08/09 03:25:30;;;;;;;3.92;2.17;;;12.90;90.60;;;;;;5038968;28;20092;-69
2021/08/09 03:27:58;;;;;;;4.82;2.08;;;12.90;90.70;;;;;;5047589;28;20045;-69
2021/08/09 03:30:24;;;;;;;4.57;2.40;;;12.90;90.80;;;;;;5043626;28;20426;-68
2021/08/09 03:32:50;;;;;;;4.75;2.22;;;12.80;90.70;;;;;;5047407;28;20104;-69
2021/08/09 03:35:15;;;;;;;5.07;1.98;;;12.80;91.00;;;;;;5035427;28;20304;-70
2021/08/09 03:37:41;;;;;;;6.32;2.58;;;12.70;91.30;;;;;;5035945;28;20113;-69
2021/08/09 03:40:07;;;;;;;4.70;2.30;;;12.70;91.20;;;;;;5030398;28;20249;-69
2021/08/09 03:42:34;;;;;;;9.07;2.78;;;12.80;91.20;;;;;;5023040;28;20059;-69
2021/08/09 03:44:59;;;;;;;7.07;2.40;;;12.70;91.30;;;;;;5044700;28;20380;-69
2021/08/09 03:47:25;;;;;;;7.07;2.38;;;12.70;91.30;;;;;;5046891;28;20040;-69
2021/08/09 03:49:50;;;;;;;7.97;2.60;;;12.80;91.20;;;;;;5032056;28;20382;-69
2021/08/09 03:52:16;;;;;;;5.95;2.40;;;12.70;91.30;;;;;;5046988;28;20075;-69
2021/08/09 03:54:42;;;;;;;5.20;2.33;;;12.70;91.40;;;;;;5040846;28;20385;-69
2021/08/09 03:57:07;;;;;;;6.97;3.00;;;12.60;91.60;;;;;;5046055;28;20052;-69
2021/08/09 03:59:33;;;;;;;7.05;3.08;;;12.70;91.60;;;;;;5034660;28;20030;-69
2021/08/09 04:01:58;;;;;;;7.57;2.58;;;12.70;91.30;;;;;;5038151;28;20438;-69
2021/08/09 04:04:24;;;;;;;6.05;2.88;;;12.70;91.50;;;;;;5018089;28;20028;-69
2021/08/09 04:06:49;;;;;;;6.25;3.15;;;12.60;91.60;;;;;;5036180;28;20057;-69
2021/08/09 04:09:15;;;;;;;7.22;2.75;;;12.60;91.80;;;;;;5037067;28;20346;-70
2021/08/09 04:11:41;;;;;;;8.35;2.60;;;12.50;91.90;;;;;;5013544;28;20064;-69
2021/08/09 04:14:06;;;;;;;7.05;2.80;;;12.50;92.20;;;;;;5042528;28;20352;-69
2021/08/09 04:16:32;;;;;;;8.15;2.80;;;12.50;92.10;;;;;;5029979;28;20025;-69
2021/08/09 04:18:57;;;;;;;7.18;2.92;;;12.50;92.20;;;;;;5043400;28;20087;-70
2021/08/09 04:21:23;;;;;;;5.95;2.53;;;12.60;92.00;;;;;;5043349;28;20044;-68
2021/08/09 04:23:49;;;;;;;6.43;2.72;;;12.60;92.00;;;;;;5040717;28;20025;-69
2021/08/09 04:26:15;;;;;;;5.03;2.65;;;12.60;92.10;;;;;;5025857;28;20037;-69
2021/08/09 04:28:42;;;;;;;7.95;3.00;;;12.60;92.20;;;;;;5024168;28;20790;-70
2021/08/09 04:31:08;;;;;;;11.40;2.90;;;12.70;92.00;;;;;;5024213;28;20026;-69
2021/08/09 04:34:00;;;;;;;4.90;2.67;;;12.60;92.10;;;;;;5016136;28;20029;-69
2021/08/09 04:36:26;;;;;;;9.60;2.90;;;12.70;91.70;;;;;;5039081;28;20053;-68
2021/08/09 04:38:51;;;;;;;7.22;2.40;;;12.80;91.60;;;;;;5038495;28;20110;-69
2021/08/09 04:41:17;;;;;;;4.68;2.85;;;12.70;91.70;;;;;;5024408;28;20032;-68
2021/08/09 04:43:42;;;;;;;8.55;2.78;;;12.70;91.50;;;;;;5032451;28;20025;-69
2021/08/09 04:46:08;;;;;;;5.60;2.80;;;12.70;91.70;;;;;;5023917;28;20606;-67
2021/08/09 04:48:34;;;;;;;6.22;2.63;;;12.80;91.60;;;;;;5042964;28;20025;-69
2021/08/09 04:51:00;;;;;;;5.25;2.70;;;12.80;91.70;;;;;;5040239;28;20369;-69
2021/08/09 04:53:26;;;;;;;10.50;2.78;;;12.80;91.70;;;;;;5034515;28;20267;-69
2021/08/09 04:55:52;;;;;;;7.78;3.10;;;12.90;91.70;;;;;;5031468;28;20029;-69
2021/08/09 04:58:17;;;;;;;8.95;2.80;;;12.90;91.50;;;;;;5041378;28;20146;-69
2021/08/09 05:00:43;;;;;;;6.10;2.83;;;12.90;91.50;;;;;;5024604;28;20025;-68
2021/08/09 05:03:09;;;;;;;6.38;2.70;;;12.90;91.40;;;;;;5040077;28;20358;-68
2021/08/09 05:05:34;;;;;;;4.63;2.40;;;13.00;91.20;;;;;;5032024;28;20029;-69
2021/08/09 05:08:00;;;;;;;6.03;2.83;;;13.00;91.40;;;;;;5049176;28;20052;-69
2021/08/09 05:10:26;;;;;;;10.70;2.63;;;13.00;91.30;;;;;;5043633;28;20017;-68
2021/08/09 05:12:52;;;;;;;6.05;2.60;;;13.10;91.30;;;;;;5043594;28;20467;-68
2021/08/09 05:15:21;;;;;;;5.53;2.50;;;13.10;91.00;;;;;;5031428;28;20062;-69
2021/08/09 05:17:46;;;;;;;7.93;2.55;;;13.30;90.50;;;;;;5039142;28;20064;-68
2021/08/09 05:20:12;;;;;;;7.35;2.38;;;13.40;90.20;;;;;;5032291;28;20099;-69
2021/08/09 05:22:38;;;;;;;10.10;3.03;;;13.40;90.20;;;;;;5051637;28;20127;-70
2021/08/09 05:25:08;;;;;;;5.45;2.30;;;13.50;90.10;;;;;;5046959;28;20032;-69
2021/08/09 05:27:34;;;;;;;7.70;2.65;;;13.50;90.00;;;;;;5048945;28;20024;-69
2021/08/09 05:30:00;;;;;;;4.95;2.47;;;13.60;90.00;;;;;;5041401;28;20035;-69
2021/08/09 05:32:26;;;;;;;5.55;2.30;;;13.70;89.60;;;;;;5038985;28;20033;-68
2021/08/09 05:34:51;;;;;;;4.43;2.20;;;13.80;89.20;;;;;;5040939;28;20034;-70
2021/08/09 05:37:17;;;;;;;9.43;2.40;;;13.80;89.20;;;;;;5044357;28;20123;-69
2021/08/09 05:39:43;;;;;;;4.57;1.98;;;13.80;89.40;;;;;;5030855;28;20022;-69
2021/08/09 05:42:08;;;;;;;7.65;2.67;;;14.00;89.10;;;;;;5038274;28;20066;-70
2021/08/09 05:44:34;;;;;;;5.03;2.15;;;14.10;88.50;;;;;;5030374;28;20032;-70
2021/08/09 05:47:00;;;;;;;4.78;2.47;;;14.20;88.30;;;;;;5029987;28;20421;-69
2021/08/09 05:49:25;;;;;;;5.10;2.13;;;14.20;88.20;;;;;;5049377;28;20060;-69
2021/08/09 05:51:51;;;;;;;6.95;2.22;;;14.30;88.30;;;;;;5033030;28;20038;-69
2021/08/09 05:54:17;;;;;;;8.15;2.25;;;14.40;87.80;;;;;;5050538;28;20048;-70
2021/08/09 05:56:42;;;;;;;8.45;2.25;;;14.50;88.30;;;;;;5047267;28;20108;-70
2021/08/09 05:59:08;;;;;;;4.97;2.30;;;14.60;87.70;;;;;;5050133;28;20124;-69
2021/08/09 06:01:34;;;;;;;6.05;2.10;;;14.60;87.50;;;;;;5045474;28;20462;-70
2021/08/09 06:03:59;;;;;;;5.40;1.95;;;14.70;87.40;;;;;;5047493;28;20482;-68
2021/08/09 06:06:25;;;;;;;4.95;1.90;;;14.70;87.30;;;;;;5031002;28;20084;-70
2021/08/09 06:08:51;;;;;;;6.30;2.33;;;14.80;87.10;;;;;;5052369;28;20145;-69
2021/08/09 06:11:17;;;;;;;8.82;2.40;;;14.80;86.90;;;;;;5030878;28;20045;-70
2021/08/09 06:13:43;;;;;;;5.15;2.20;;;14.90;86.60;;;;;;5050464;28;20053;-70
2021/08/09 06:16:09;;;;;;;4.72;2.33;;;15.00;86.70;;;;;;5032133;28;20033;-69
2021/08/09 06:18:36;;;;;;;5.30;2.05;;;15.10;86.70;;;;;;5049986;28;20468;-69
2021/08/09 06:21:03;;;;;;;5.60;1.77;;;15.10;86.30;;;;;;5044813;28;20028;-69
2021/08/09 06:23:28;;;;;;;5.15;2.10;;;15.20;86.70;;;;;;5049912;28;20036;-69
2021/08/09 06:25:55;;;;;;;8.63;2.35;;;15.20;86.30;;;;;;5038286;28;20083;-68
2021/08/09 06:28:21;;;;;;;4.07;1.77;;;15.30;85.50;;;;;;5049609;28;20043;-68
2021/08/09 06:30:47;;;;;;;3.20;1.75;;;15.30;85.80;;;;;;5038283;28;20128;-69
2021/08/09 06:33:12;;;;;;;9.73;2.58;;;15.40;85.40;;;;;;5048410;28;20135;-70
2021/08/09 06:35:38;;;;;;;4.60;1.90;;;15.50;85.70;;;;;;5042899;28;20020;-69
2021/08/09 06:38:05;;;;;;;3.95;2.00;;;15.50;85.10;;;;;;5040745;28;20021;-69
2021/08/09 06:40:32;;;;;;;6.00;1.92;;;15.50;84.50;;;;;;5042183;28;20192;-69
2021/08/09 06:42:57;;;;;;;5.90;2.20;;;15.50;84.50;;;;;;5049876;28;20520;-68
2021/08/09 06:45:23;;;;;;;8.65;2.08;;;15.60;85.30;;;;;;5043545;28;20104;-69
2021/08/09 06:47:49;;;;;;;6.07;2.03;;;15.60;84.90;;;;;;5049878;28;20442;-70
2021/08/09 06:50:14;;;;;;;5.88;2.33;;;15.70;84.60;;;;;;5041531;28;20051;-70
2021/08/09 06:52:40;;;;;;;6.60;2.13;;;15.70;84.50;;;;;;5049493;28;20506;-70
2021/08/09 06:55:07;;;;;;;8.68;2.13;;;15.70;84.80;;;;;;5037390;28;20077;-69
2021/08/09 06:57:33;;;;;;;6.47;2.17;;;15.80;84.50;;;;;;5048886;28;20111;-69
2021/08/09 06:59:58;;;;;;;6.63;2.00;;;15.90;83.70;;;;;;5040325;28;20041;-69
2021/08/09 07:02:25;;;;;;;7.82;2.28;;;16.00;83.50;;;;;;5035168;28;20025;-68
2021/08/09 07:04:51;;;;;;;7.43;1.98;;;15.90;83.60;;;;;;5041623;28;20386;-69
2021/08/09 07:07:16;;;;;;;5.43;1.80;;;15.90;83.00;;;;;;5033854;28;20073;-70
2021/08/09 07:09:42;;;;;;;8.57;2.17;;;16.10;83.80;;;;;;5045788;28;20471;-69
2021/08/09 07:12:09;;;;;;;5.95;1.65;;;16.00;82.60;;;;;;5043640;28;20021;-69
2021/08/09 07:14:35;;;;;;;6.97;2.03;;;16.00;82.40;;;;;;5044355;28;20033;-69
2021/08/09 07:17:01;;;;;;;7.50;2.20;;;16.00;83.10;;;;;;5034077;28;20053;-69
2021/08/09 07:19:27;;;;;;;6.28;1.67;;;16.10;82.60;;;;;;5046753;28;20080;-69
2021/08/09 07:21:52;;;;;;;11.15;1.95;;;16.30;82.80;;;;;;5035023;28;20039;-70
2021/08/09 07:24:18;;;;;;;8.07;2.08;;;16.20;82.60;;;;;;5033105;28;20045;-70
2021/08/09 07:26:44;;;;;;;4.38;1.92;;;16.30;81.90;;;;;;5044285;28;20480;-70
2021/08/09 07:29:10;;;;;;;5.32;2.10;;;16.30;81.80;;;;;;5048224;28;20331;-69
2021/08/09 07:31:35;;;;;;;7.30;1.88;;;16.40;81.60;;;;;;5026870;28;20442;-69
2021/08/09 07:34:01;;;;;;;5.25;2.00;;;16.70;82.10;;;;;;5044692;28;20057;-69
2021/08/09 07:36:26;;;;;;;9.23;2.70;;;16.80;80.60;;;;;;5044114;28;20040;-70
2021/08/09 07:38:52;;;;;;;5.30;1.98;;;16.70;80.90;;;;;;5033879;28;20028;-70
2021/08/09 07:41:17;;;;;;;7.10;2.30;;;16.80;80.60;;;;;;5026535;28;20452;-70
2021/08/09 07:43:45;;;;;;;6.63;2.08;;;16.90;81.20;;;;;;5046477;28;20090;-69
2021/08/09 07:46:11;;;;;;;7.82;2.17;;;17.10;81.70;;;;;;5029667;28;20131;-69
2021/08/09 07:48:37;;;;;;;3.60;1.83;;;17.00;80.50;;;;;;5041061;28;20036;-70
2021/08/09 07:51:03;;;;;;;6.22;2.05;;;17.20;80.80;;;;;;5041657;28;20128;-69
2021/08/09 07:53:29;;;;;;;5.18;1.80;;;17.20;80.00;;;;;;5040181;28;20037;-69
2021/08/09 07:55:54;;;;;;;8.32;2.40;;;17.40;79.90;;;;;;5031525;28;20021;-69
2021/08/09 07:58:20;;;;;;;6.32;2.13;;;17.40;79.90;;;;;;5037625;28;20454;-69
2021/08/09 08:00:46;;;;;;;5.50;1.75;;;17.40;78.90;;;;;;5047988;28;20077;-69
2021/08/09 08:03:11;;;;;;;8.70;2.13;;;17.50;80.00;;;;;;5046652;28;20360;-69
2021/08/09 08:05:37;;;;;;;7.30;2.00;;;17.50;79.60;;;;;;5038099;28;20033;-70
2021/08/09 08:08:04;;;;;;;5.63;2.00;;;17.70;79.40;;;;;;5037467;28;20045;-70
2021/08/09 08:10:29;;;;;;;7.75;2.20;;;17.80;79.40;;;;;;5037908;28;20107;-68
2021/08/09 08:12:56;;;;;;;6.63;1.92;;;17.90;77.60;;;;;;5038911;28;20551;-70
2021/08/09 08:15:22;;;;;;;5.82;2.35;;;18.00;78.10;;;;;;5036604;28;20132;-69
2021/08/09 08:17:47;;;;;;;8.05;2.20;;;18.00;78.50;;;;;;5043821;28;20033;-70
2021/08/09 08:20:13;;;;;;;6.47;1.95;;;18.20;78.20;;;;;;5037836;28;20044;-70
2021/08/09 08:22:39;;;;;;;8.13;2.00;;;18.20;77.90;;;;;;5023474;28;20104;-70
2021/08/09 08:25:05;;;;;;;7.88;2.35;;;18.50;77.90;;;;;;5030485;28;20076;-69
2021/08/09 08:27:31;;;;;;;6.65;1.80;;;18.80;76.20;;;;;;5035568;28;20102;-69
2021/08/09 08:29:57;;;;;;;8.07;2.40;;;18.90;75.20;;;;;;5039671;28;20033;-69
2021/08/09 08:32:22;;;;;;;5.93;2.03;;;18.50;74.40;;;;;;5027325;28;20044;-70
2021/08/09 08:34:49;;;;;;;6.45;2.13;;;18.30;76.60;;;;;;5038582;28;20034;-70
2021/08/09 08:37:14;;;;;;;7.30;2.22;;;18.10;75.50;;;;;;5039132;28;20434;-70
2021/08/09 08:39:40;;;;;;;4.07;1.48;;;18.50;75.00;;;;;;5037316;28;20025;-70
2021/08/09 08:42:06;;;;;;;7.40;1.77;;;18.40;75.10;;;;;;5028301;28;20029;-70
2021/08/09 08:44:31;;;;;;;7.18;1.85;;;18.40;74.60;;;;;;5042820;28;20032;-70
2021/08/09 08:46:57;;;;;;;5.15;1.92;;;18.90;75.30;;;;;;5033028;28;20048;-70
2021/08/09 08:49:26;;;;;;;7.25;1.70;;;18.80;75.20;;;;;;5048162;28;20480;-69
2021/08/09 08:51:52;;;;;;;8.43;1.98;;;18.70;74.20;;;;;;5052100;28;20044;-70
2021/08/09 08:54:18;;;;;;;6.35;1.85;;;18.70;75.10;;;;;;5047712;28;20430;-70
2021/08/09 08:56:45;;;;;;;5.95;1.98;;;18.60;73.00;;;;;;5010177;28;20029;-70
2021/08/09 08:59:15;;;;;;;7.30;1.70;;;18.70;72.80;;;;;;5041699;28;20039;-70
2021/08/09 09:01:43;;;;;;;8.67;1.70;;;18.80;71.30;;;;;;5036800;28;20128;-70
2021/08/09 09:04:24;;;;;;;6.10;1.70;;;19.10;70.20;;;;;;5035137;28;20049;-69
2021/08/09 09:07:07;;;;;;;6.97;2.10;;;19.30;68.10;;;;;;5038300;28;20102;-69
2021/08/09 09:09:37;;;;;;;6.20;1.67;;;19.60;69.60;;;;;;5055372;28;20211;-71
2021/08/09 09:12:19;;;;;;;5.80;1.55;;;19.50;66.40;;;;;;5046853;28;20028;-70
2021/08/09 09:14:59;;;;;;;5.65;1.48;;;19.70;68.00;;;;;;5055285;28;20032;-70
2021/08/09 09:17:35;;;;;;;6.15;1.17;;;19.90;67.30;;;;;;5027496;28;20025;-70
2021/08/09 09:20:22;;;;;;;5.25;1.33;;;19.70;65.50;;;;;;5053723;28;20033;-70
2021/08/09 09:22:48;;;;;;;4.78;1.48;;;19.90;64.80;;;;;;5026381;28;20028;-69
2021/08/09 09:25:13;;;;;;;3.95;1.33;;;20.00;65.00;;;;;;5046180;28;20026;-70
2021/08/09 09:27:39;;;;;;;7.68;1.27;;;20.00;63.60;;;;;;5049850;28;20033;-70
2021/08/09 09:30:28;;;;;;;4.70;1.70;;;20.30;63.10;;;;;;5033265;28;20038;-70
2021/08/09 09:33:00;;;;;;;5.78;1.60;;;20.30;62.50;;;;;;5042885;28;20021;-70
2021/08/09 09:35:26;;;;;;;3.63;1.20;;;20.50;64.70;;;;;;5035129;28;20131;-69
2021/08/09 09:37:52;;;;;;;3.95;1.38;;;20.30;63.90;;;;;;5040132;28;20529;-70
2021/08/09 09:40:20;;;;;;;3.63;1.30;;;19.90;64.70;;;;;;5041680;28;20035;-71
2021/08/09 09:42:47;;;;;;;5.40;1.77;;;20.00;64.70;;;;;;5049335;28;20029;-70
2021/08/09 09:45:29;;;;;;;3.33;1.20;;;20.40;63.10;;;;;;5032087;28;20121;-71
2021/08/09 09:48:06;;;;;;;6.07;1.17;;;20.80;62.50;;;;;;5047151;28;20029;-70
2021/08/09 09:50:33;;;;;;;7.93;1.40;;;21.10;61.00;;;;;;5032761;28;20040;-70
2021/08/09 09:53:13;;;;;;;5.55;1.25;;;21.20;61.40;;;;;;5044012;28;20053;-70
2021/08/09 09:55:40;;;;;;;7.60;1.30;;;21.10;63.40;;;;;;5045704;28;20037;-70
2021/08/09 09:58:06;;;;;;;3.45;1.10;;;20.80;62.20;;;;;;5048327;28;20065;-70
2021/08/09 10:00:32;;;;;;;4.72;1.17;;;20.60;64.20;;;;;;5045542;28;20170;-70
2021/08/09 10:02:57;;;;;;;6.30;1.13;;;20.60;62.20;;;;;;5044848;28;20483;-70
2021/08/09 10:05:23;;;;;;;4.72;1.58;;;20.30;62.20;;;;;;5030004;28;20037;-69
2021/08/09 10:07:53;;;;;;;4.35;1.40;;;20.50;61.60;;;;;;5039973;28;20043;-69
2021/08/09 10:10:23;;;;;;;3.50;1.00;;;20.40;63.60;;;;;;5045624;28;20097;-70
2021/08/09 10:12:52;;;;;;;4.50;0.90;;;20.30;61.90;;;;;;5047996;28;20032;-70
2021/08/09 10:15:19;;;;;;;2.53;0.90;;;20.20;61.30;;;;;;5044035;28;20033;-70
2021/08/09 10:17:47;;;;;;;4.32;1.05;;;20.50;62.00;;;;;;5031862;28;20041;-70
2021/08/09 10:20:16;;;;;;;5.70;1.13;;;20.80;62.20;;;;;;5037444;28;20029;-70
2021/08/09 10:22:57;;;;;;;5.28;1.08;;;20.60;59.30;;;;;;5045964;28;20029;-70
2021/08/09 10:25:44;;;;;;;4.18;1.13;;;20.60;60.40;;;;;;5022085;28;20032;-70
2021/08/09 10:28:09;;;;;;;7.57;1.30;;;20.40;60.70;;;;;;5040323;28;20099;-70
2021/08/09 10:30:36;;;;;;;2.38;1.10;;;20.00;61.30;;;;;;5044886;28;20033;-70
2021/08/09 10:33:08;;;;;;;4.68;0.95;;;20.00;63.30;;;;;;5046284;28;20112;-70
2021/08/09 10:35:33;;;;;;;4.40;1.10;;;20.20;63.60;;;;;;5046321;28;20090;-70
2021/08/09 10:38:16;;;;;;;2.55;1.20;;;20.40;65.30;;;;;;5043480;28;20026;-69
2021/08/09 10:40:47;;;;;;;4.03;0.95;;;20.40;63.30;;;;;;5035666;28;20025;-70
2021/08/09 10:43:13;;;;;;;2.42;0.70;;;20.30;63.80;;;;;;5043967;28;20136;-70
2021/08/09 10:45:40;;;;;;;4.22;0.88;;;20.40;64.10;;;;;;5026509;28;20490;-70
2021/08/09 10:48:09;;;;;;;3.50;1.00;;;20.60;63.50;;;;;;5038662;28;20037;-70
2021/08/09 10:50:39;;;;;;;2.30;1.05;;;20.70;63.00;;;;;;5045578;28;20028;-70
2021/08/09 10:53:24;;;;;;;5.80;1.02;;;20.60;61.30;;;;;;5030788;28;20379;-70
2021/08/09 10:55:59;;;;;;;3.97;1.08;;;20.60;61.20;;;;;;5046816;28;20105;-70
2021/08/09 10:58:43;;;;;;;4.90;1.13;;;20.40;61.90;;;;;;5044783;28;20057;-69
2021/08/09 11:01:23;;;;;;;4.43;1.10;;;20.10;62.00;;;;;;5025538;28;20032;-70
2021/08/09 11:04:01;;;;;;;5.45;1.25;;;20.00;62.70;;;;;;5039981;28;20032;-70
2021/08/09 11:06:41;;;;;;;3.58;1.13;;;20.30;62.20;;;;;;5051246;28;20028;-70
2021/08/09 11:09:32;;;;;;;4.30;1.30;;;20.50;62.50;;;;;;5048053;28;20035;-70
2021/08/09 11:12:14;;;;;;;3.88;1.17;;;20.70;62.10;;;;;;5039423;28;20128;-70
2021/08/09 11:15:07;;;;;;;3.95;1.02;;;20.50;61.50;;;;;;5040945;28;20089;-70
2021/08/09 11:17:41;;;;;;;4.18;1.23;;;20.20;62.10;;;;;;5051020;28;20115;-70
2021/08/09 11:20:16;;;;;;;6.30;1.30;;;20.20;62.30;;;;;;5042775;28;20101;-69
2021/08/09 11:23:07;;;;;;;4.10;1.05;;;20.10;62.60;;;;;;5051567;28;20060;-70
2021/08/09 11:25:48;;;;;;;4.32;1.02;;;20.20;61.60;;;;;;5041517;28;20338;-71
2021/08/09 11:28:23;;;;;;;4.18;1.15;;;20.00;61.90;;;;;;5038169;28;20474;-70
2021/08/09 11:30:58;;;;;;;4.72;1.20;;;20.10;63.20;;;;;;5037327;28;20063;-70
2021/08/09 11:33:40;;;;;;;4.15;1.20;;;20.30;62.50;;;;;;5051177;28;20479;-70
2021/08/09 11:36:08;;;;;;;4.85;1.13;;;20.40;63.10;;;;;;5031123;28;20025;-71
2021/08/09 11:38:55;;;;;;;3.08;0.93;;;20.40;62.60;;;;;;5044228;28;20043;-70
2021/08/09 11:41:22;;;;;;;5.18;1.00;;;20.10;61.60;;;;;;5038003;28;20139;-70
2021/08/09 11:43:50;;;;;;;3.03;0.95;;;20.40;62.30;;;;;;5044649;28;20069;-70
2021/08/09 11:46:19;;;;;;;4.47;1.00;;;20.60;62.40;;;;;;5039150;28;20094;-70
2021/08/09 11:48:47;;;;;;;5.22;1.20;;;20.70;61.80;;;;;;5050379;28;20064;-70
2021/08/09 11:51:28;;;;;;;5.07;1.20;;;21.00;62.20;;;;;;5037931;28;20481;-69
2021/08/09 11:53:54;;;;;;;;;;;21.10;61.80;;;;;;5052113;28;20043;-70
2021/08/09 11:56:31;;;;;;;2.97;0.95;;;20.70;63.30;;;;;;5028300;28;19909;-69
2021/08/09 11:58:58;;;;;;;4.20;1.25;;;20.70;61.10;;;;;;5044198;28;20143;-68
2021/08/09 12:01:29;;;;;;;4.40;1.00;;;21.00;63.60;;;;;;5036384;28;20055;-70
2021/08/09 12:04:08;;;;;;;2.78;1.20;;;20.90;64.20;;;;;;5026951;28;20039;-70
2021/08/09 12:06:50;;;;;;;4.15;1.10;;;21.00;62.70;;;;;;5033737;28;20051;-70
2021/08/09 12:09:23;;;;;;;4.25;0.90;;;21.00;62.60;;;;;;5033446;28;20108;-70
2021/08/09 12:12:04;;;;;;;3.75;1.15;;;21.20;62.60;;;;;;5028872;28;20082;-71
2021/08/09 12:14:31;;;;;;;4.60;1.17;;;20.90;62.60;;;;;;5047329;28;20030;-69
2021/08/09 12:16:59;;;;;;;4.35;1.02;;;21.00;63.30;;;;;;5046163;28;20151;-70
2021/08/09 12:19:45;;;;;;;3.67;1.00;;;21.10;64.40;;;;;;5044608;28;20164;-70
2021/08/09 12:22:17;;;;;;;5.20;1.20;;;21.30;64.20;;;;;;5049044;28;20100;-70
2021/08/09 12:25:11;;;;;;;5.63;1.02;;;22.10;61.10;;;;;;5048799;28;20033;-70
2021/08/09 12:27:38;;;;;;;4.55;1.45;;;22.20;60.10;;;;;;5044083;28;20062;-70
2021/08/09 12:30:11;;;;;;;6.90;1.48;;;22.40;57.70;;;;;;5040420;28;20482;-70
2021/08/09 12:32:42;;;;;;;4.00;1.42;;;22.00;59.00;;;;;;5053071;28;20136;-70
2021/08/09 12:35:10;;;;;;;5.47;1.20;;;22.30;61.80;;;;;;5042308;28;20229;-70
2021/08/09 12:37:36;;;;;;;7.43;1.80;;;22.50;59.10;;;;;;5052762;28;20511;-70
2021/08/09 12:40:17;;;;;;;6.15;1.50;;;22.20;59.00;;;;;;5048332;28;20017;-70
2021/08/09 12:42:59;;;;;;;5.70;1.52;;;22.20;60.20;;;;;;5024118;28;20028;-71
2021/08/09 12:45:25;;;;;;;5.43;1.48;;;21.90;60.90;;;;;;5040093;28;20043;-67
2021/08/09 12:47:50;;;;;;;6.38;1.50;;;21.70;61.20;;;;;;5051973;28;20365;-69
2021/08/09 12:50:16;;;;;;;7.35;1.70;;;21.50;61.50;;;;;;5046327;28;20021;-69
2021/08/09 12:52:41;;;;;;;4.50;1.20;;;21.30;61.70;;;;;;5050368;28;20081;-69
2021/08/09 12:55:07;;;;;;;4.25;1.20;;;21.40;61.40;;;;;;5042439;28;20037;-69
2021/08/09 12:57:34;;;;;;;3.53;1.45;;;21.10;63.20;;;;;;5039130;28;20044;-70